sensor_id;sensor_type;location;lat;lon;timestamp;temperature;humidity
25753;DHT22;13600;50.816;4.416;2023-09-19T00:01:08;17.40;99.90
25753;DHT22;13600;50.816;4.416;2023-09-19T00:03:35;17.50;99.90
25753;DHT22;13600;50.816;4.416;2023-09-19T00:06:05;17.60;99.90
25753;DHT22;13600;50.816;4.416;2023-09-19T00:08:33;17.60;99.90
25753;DHT22;13600;50.816;4.416;2023-09-19T00:10:58;17.60;99.90
25753;DHT22;13600;50.816;4.416;2023-09-19T00:13:32;17.60;99.90
25753;DHT22;13600;50.816;4.416;2023-09-19T00:15:59;17.60;99.90
25753;DHT22;13600;50.816;4.416;2023-09-19T00:18:25;17.50;99.90
25753;DHT22;13600;50.816;4.416;2023-09-19T00:20:58;17.40;99.90
25753;DHT22;13600;50.816;4.416;2023-09-19T00:23:24;17.40;99.90
25753;DHT22;13600;50.816;4.416;2023-09-19T00:25:50;17.30;99.90
25753;DHT22;13600;50.816;4.416;2023-09-19T00:28:17;17.30;99.90
25753;DHT22;13600;50.816;4.416;2023-09-19T00:30:45;17.30;99.90
25753;DHT22;13600;50.816;4.416;2023-09-19T00:33:15;17.30;99.90
25753;DHT22;13600;50.816;4.416;2023-09-19T00:35:54;17.30;99.90
25753;DHT22;13600;50.816;4.416;2023-09-19T00:38:21;17.20;99.90
25753;DHT22;13600;50.816;4.416;2023-09-19T00:40:48;17.20;99.90
25753;DHT22;13600;50.816;4.416;2023-09-19T00:43:15;17.20;99.90
25753;DHT22;13600;50.816;4.416;2023-09-19T00:45:43;17.20;99.90
25753;DHT22;13600;50.816;4.416;2023-09-19T00:48:09;17.10;99.90
25753;DHT22;13600;50.816;4.416;2023-09-19T00:50:36;17.10;99.90
25753;DHT22;13600;50.816;4.416;2023-09-19T00:53:02;17.20;99.90
25753;DHT22;13600;50.816;4.416;2023-09-19T00:55:34;17.20;99.90
25753;DHT22;13600;50.816;4.416;2023-09-19T00:58:00;17.20;99.90
25753;DHT22;13600;50.816;4.416;2023-09-19T01:00:26;17.10;99.90
25753;DHT22;13600;50.816;4.416;2023-09-19T01:02:52;17.10;99.90
25753;DHT22;13600;50.816;4.416;2023-09-19T01:05:19;17.10;99.90
25753;DHT22;13600;50.816;4.416;2023-09-19T01:07:45;17.00;99.90
25753;DHT22;13600;50.816;4.416;2023-09-19T01:10:19;17.10;99.90
25753;DHT22;13600;50.816;4.416;2023-09-19T01:13:13;17.00;99.90
25753;DHT22;13600;50.816;4.416;2023-09-19T01:30:14;17.00;99.90
25753;DHT22;13600;50.816;4.416;2023-09-19T01:32:39;17.00;99.90
25753;DHT22;13600;50.816;4.416;2023-09-19T01:35:06;16.90;99.90
25753;DHT22;13600;50.816;4.416;2023-09-19T01:37:37;16.80;99.90
25753;DHT22;13600;50.816;4.416;2023-09-19T01:40:06;17.00;99.90
25753;DHT22;13600;50.816;4.416;2023-09-19T01:43:12;17.00;99.90
25753;DHT22;13600;50.816;4.416;2023-09-19T01:51:59;16.70;99.90
25753;DHT22;13600;50.816;4.416;2023-09-19T01:54:33;16.80;99.90
25753;DHT22;13600;50.816;4.416;2023-09-19T01:57:06;16.80;99.90
25753;DHT22;13600;50.816;4.416;2023-09-19T01:59:43;16.90;99.90
25753;DHT22;13600;50.816;4.416;2023-09-19T02:02:11;17.00;99.90
25753;DHT22;13600;50.816;4.416;2023-09-19T02:04:37;17.00;99.90
25753;DHT22;13600;50.816;4.416;2023-09-19T02:07:03;16.90;99.90
25753;DHT22;13600;50.816;4.416;2023-09-19T02:09:31;16.90;99.90
25753;DHT22;13600;50.816;4.416;2023-09-19T02:11:59;17.00;99.90
25753;DHT22;13600;50.816;4.416;2023-09-19T02:14:25;17.00;99.90
25753;DHT22;13600;50.816;4.416;2023-09-19T02:16:51;17.00;99.90
25753;DHT22;13600;50.816;4.416;2023-09-19T02:19:16;17.00;99.90
25753;DHT22;13600;50.816;4.416;2023-09-19T02:21:42;17.10;99.90
25753;DHT22;13600;50.816;4.416;2023-09-19T02:24:09;17.20;99.90
25753;DHT22;13600;50.816;4.416;2023-09-19T02:26:35;17.00;99.90
25753;DHT22;13600;50.816;4.416;2023-09-19T02:29:02;17.10;99.90
25753;DHT22;13600;50.816;4.416;2023-09-19T02:31:30;16.90;99.90
25753;DHT22;13600;50.816;4.416;2023-09-19T02:33:56;16.80;99.90
25753;DHT22;13600;50.816;4.416;2023-09-19T02:36:22;16.80;99.90
25753;DHT22;13600;50.816;4.416;2023-09-19T02:38:49;16.90;99.90
25753;DHT22;13600;50.816;4.416;2023-09-19T02:41:15;16.90;99.90
25753;DHT22;13600;50.816;4.416;2023-09-19T02:43:40;16.80;99.90
25753;DHT22;13600;50.816;4.416;2023-09-19T02:46:08;16.80;99.90
25753;DHT22;13600;50.816;4.416;2023-09-19T02:48:34;16.80;99.90
25753;DHT22;13600;50.816;4.416;2023-09-19T02:51:01;16.80;99.90
25753;DHT22;13600;50.816;4.416;2023-09-19T02:53:28;16.70;99.90
25753;DHT22;13600;50.816;4.416;2023-09-19T02:55:56;16.80;99.90
25753;DHT22;13600;50.816;4.416;2023-09-19T02:58:22;16.90;99.90
25753;DHT22;13600;50.816;4.416;2023-09-19T03:00:49;16.80;99.90
25753;DHT22;13600;50.816;4.416;2023-09-19T03:03:15;16.70;99.90
25753;DHT22;13600;50.816;4.416;2023-09-19T03:05:44;16.70;99.90
25753;DHT22;13600;50.816;4.416;2023-09-19T03:08:15;16.70;99.90
25753;DHT22;13600;50.816;4.416;2023-09-19T03:10:42;16.60;99.90
25753;DHT22;13600;50.816;4.416;2023-09-19T03:13:07;16.70;99.90
25753;DHT22;13600;50.816;4.416;2023-09-19T03:15:35;16.60;99.90
25753;DHT22;13600;50.816;4.416;2023-09-19T03:18:04;16.60;99.90
25753;DHT22;13600;50.816;4.416;2023-09-19T03:20:30;16.60;99.90
25753;DHT22;13600;50.816;4.416;2023-09-19T03:22:56;16.60;99.90
25753;DHT22;13600;50.816;4.416;2023-09-19T03:25:22;16.60;99.90
25753;DHT22;13600;50.816;4.416;2023-09-19T03:27:48;16.70;99.90
25753;DHT22;13600;50.816;4.416;2023-09-19T03:30:14;16.80;99.90
25753;DHT22;13600;50.816;4.416;2023-09-19T03:32:47;16.80;99.90
25753;DHT22;13600;50.816;4.416;2023-09-19T03:35:16;16.90;99.90
25753;DHT22;13600;50.816;4.416;2023-09-19T03:37:42;16.90;99.90
25753;DHT22;13600;50.816;4.416;2023-09-19T03:40:09;16.90;99.90
25753;DHT22;13600;50.816;4.416;2023-09-19T03:42:41;16.90;99.90
25753;DHT22;13600;50.816;4.416;2023-09-19T03:45:08;17.00;99.90
25753;DHT22;13600;50.816;4.416;2023-09-19T03:47:38;17.00;99.90
25753;DHT22;13600;50.816;4.416;2023-09-19T03:50:05;16.80;99.90
25753;DHT22;13600;50.816;4.416;2023-09-19T03:52:32;16.80;99.90
25753;DHT22;13600;50.816;4.416;2023-09-19T03:54:58;16.80;99.90
25753;DHT22;13600;50.816;4.416;2023-09-19T03:57:24;16.70;99.90
25753;DHT22;13600;50.816;4.416;2023-09-19T03:59:50;16.60;99.90
25753;DHT22;13600;50.816;4.416;2023-09-19T04:02:19;16.60;99.90
25753;DHT22;13600;50.816;4.416;2023-09-19T04:04:48;16.50;99.90
25753;DHT22;13600;50.816;4.416;2023-09-19T04:07:14;16.40;99.90
25753;DHT22;13600;50.816;4.416;2023-09-19T04:09:39;16.40;99.90
25753;DHT22;13600;50.816;4.416;2023-09-19T04:12:06;16.30;99.90
25753;DHT22;13600;50.816;4.416;2023-09-19T04:14:34;16.30;99.90
25753;DHT22;13600;50.816;4.416;2023-09-19T04:17:00;16.30;99.90
25753;DHT22;13600;50.816;4.416;2023-09-19T04:19:26;16.30;99.90
25753;DHT22;13600;50.816;4.416;2023-09-19T04:21:51;16.30;99.90
25753;DHT22;13600;50.816;4.416;2023-09-19T04:24:17;16.40;99.90
25753;DHT22;13600;50.816;4.416;2023-09-19T04:26:45;16.50;99.90
25753;DHT22;13600;50.816;4.416;2023-09-19T04:29:13;16.40;99.90
25753;DHT22;13600;50.816;4.416;2023-09-19T04:31:46;16.40;99.90
25753;DHT22;13600;50.816;4.416;2023-09-19T04:34:12;16.40;99.90
25753;DHT22;13600;50.816;4.416;2023-09-19T04:36:43;16.30;99.90
25753;DHT22;13600;50.816;4.416;2023-09-19T04:39:09;16.20;99.90
25753;DHT22;13600;50.816;4.416;2023-09-19T04:41:36;16.20;99.90
25753;DHT22;13600;50.816;4.416;2023-09-19T04:44:08;16.20;99.90
25753;DHT22;13600;50.816;4.416;2023-09-19T04:46:34;16.20;99.90
25753;DHT22;13600;50.816;4.416;2023-09-19T04:49:00;16.20;99.90
25753;DHT22;13600;50.816;4.416;2023-09-19T04:51:26;16.20;99.90
25753;DHT22;13600;50.816;4.416;2023-09-19T04:53:54;16.20;99.90
25753;DHT22;13600;50.816;4.416;2023-09-19T04:56:20;16.20;99.90
25753;DHT22;13600;50.816;4.416;2023-09-19T04:58:46;16.40;99.90
25753;DHT22;13600;50.816;4.416;2023-09-19T05:01:12;16.10;99.90
25753;DHT22;13600;50.816;4.416;2023-09-19T05:03:40;16.00;99.90
25753;DHT22;13600;50.816;4.416;2023-09-19T05:06:06;16.00;99.90
25753;DHT22;13600;50.816;4.416;2023-09-19T05:08:31;15.90;99.90
25753;DHT22;13600;50.816;4.416;2023-09-19T05:10:57;15.90;99.90
25753;DHT22;13600;50.816;4.416;2023-09-19T05:13:23;15.90;99.90
25753;DHT22;13600;50.816;4.416;2023-09-19T05:15:49;15.90;99.90
25753;DHT22;13600;50.816;4.416;2023-09-19T05:18:18;15.90;99.90
25753;DHT22;13600;50.816;4.416;2023-09-19T05:20:44;15.80;99.90
25753;DHT22;13600;50.816;4.416;2023-09-19T05:23:10;15.80;99.90
25753;DHT22;13600;50.816;4.416;2023-09-19T05:25:39;15.90;99.90
25753;DHT22;13600;50.816;4.416;2023-09-19T05:28:11;15.90;99.90
25753;DHT22;13600;50.816;4.416;2023-09-19T05:30:40;15.90;99.90
25753;DHT22;13600;50.816;4.416;2023-09-19T05:33:09;15.70;99.90
25753;DHT22;13600;50.816;4.416;2023-09-19T05:35:35;15.80;99.90
25753;DHT22;13600;50.816;4.416;2023-09-19T05:38:05;15.70;99.90
25753;DHT22;13600;50.816;4.416;2023-09-19T05:40:34;15.80;99.90
25753;DHT22;13600;50.816;4.416;2023-09-19T05:43:00;15.90;99.90
25753;DHT22;13600;50.816;4.416;2023-09-19T05:45:26;16.00;99.90
25753;DHT22;13600;50.816;4.416;2023-09-19T05:47:53;16.10;99.90
25753;DHT22;13600;50.816;4.416;2023-09-19T05:50:26;16.10;99.90
25753;DHT22;13600;50.816;4.416;2023-09-19T05:52:52;16.10;99.90
25753;DHT22;13600;50.816;4.416;2023-09-19T05:55:19;16.20;99.90
25753;DHT22;13600;50.816;4.416;2023-09-19T05:57:54;16.20;99.90
25753;DHT22;13600;50.816;4.416;2023-09-19T06:00:21;16.10;99.90
25753;DHT22;13600;50.816;4.416;2023-09-19T06:02:57;16.20;99.90
25753;DHT22;13600;50.816;4.416;2023-09-19T06:05:24;16.20;99.90
25753;DHT22;13600;50.816;4.416;2023-09-19T06:07:52;16.30;99.90
25753;DHT22;13600;50.816;4.416;2023-09-19T06:10:19;16.40;99.90
25753;DHT22;13600;50.816;4.416;2023-09-19T06:12:48;16.50;99.90
25753;DHT22;13600;50.816;4.416;2023-09-19T06:15:14;16.40;99.90
25753;DHT22;13600;50.816;4.416;2023-09-19T06:17:54;16.30;99.90
25753;DHT22;13600;50.816;4.416;2023-09-19T06:20:21;16.30;99.90
25753;DHT22;13600;50.816;4.416;2023-09-19T06:22:48;16.30;99.90
25753;DHT22;13600;50.816;4.416;2023-09-19T06:25:15;16.30;99.90
25753;DHT22;13600;50.816;4.416;2023-09-19T06:27:42;16.30;99.90
25753;DHT22;13600;50.816;4.416;2023-09-19T06:30:09;16.40;99.90
25753;DHT22;13600;50.816;4.416;2023-09-19T06:32:37;16.60;99.90
25753;DHT22;13600;50.816;4.416;2023-09-19T06:35:03;16.50;99.90
25753;DHT22;13600;50.816;4.416;2023-09-19T06:37:32;16.60;99.90
25753;DHT22;13600;50.816;4.416;2023-09-19T06:39:59;16.40;99.90
25753;DHT22;13600;50.816;4.416;2023-09-19T06:42:25;16.40;99.90
25753;DHT22;13600;50.816;4.416;2023-09-19T06:44:51;16.50;99.90
25753;DHT22;13600;50.816;4.416;2023-09-19T06:47:17;16.60;99.90
25753;DHT22;13600;50.816;4.416;2023-09-19T06:49:43;16.60;99.90
25753;DHT22;13600;50.816;4.416;2023-09-19T06:52:11;16.70;99.90
25753;DHT22;13600;50.816;4.416;2023-09-19T06:54:37;16.80;99.90
25753;DHT22;13600;50.816;4.416;2023-09-19T06:57:05;16.80;99.90
25753;DHT22;13600;50.816;4.416;2023-09-19T06:59:35;17.00;99.90
25753;DHT22;13600;50.816;4.416;2023-09-19T07:02:01;16.90;99.90
25753;DHT22;13600;50.816;4.416;2023-09-19T07:04:28;17.00;99.90
25753;DHT22;13600;50.816;4.416;2023-09-19T07:06:53;17.00;99.90
25753;DHT22;13600;50.816;4.416;2023-09-19T07:09:19;17.20;99.90
25753;DHT22;13600;50.816;4.416;2023-09-19T07:11:45;17.20;99.90
25753;DHT22;13600;50.816;4.416;2023-09-19T07:14:11;17.20;99.90
25753;DHT22;13600;50.816;4.416;2023-09-19T07:16:37;17.10;99.90
25753;DHT22;13600;50.816;4.416;2023-09-19T07:19:05;16.90;99.90
25753;DHT22;13600;50.816;4.416;2023-09-19T07:21:30;17.00;99.90
25753;DHT22;13600;50.816;4.416;2023-09-19T07:23:59;17.20;99.90
25753;DHT22;13600;50.816;4.416;2023-09-19T07:26:26;17.50;99.90
25753;DHT22;13600;50.816;4.416;2023-09-19T07:28:54;17.70;99.90
25753;DHT22;13600;50.816;4.416;2023-09-19T07:31:20;17.80;99.90
25753;DHT22;13600;50.816;4.416;2023-09-19T07:33:48;17.80;99.90
25753;DHT22;13600;50.816;4.416;2023-09-19T07:36:15;17.80;99.90
25753;DHT22;13600;50.816;4.416;2023-09-19T07:38:41;17.80;99.90
25753;DHT22;13600;50.816;4.416;2023-09-19T07:41:08;17.90;99.90
25753;DHT22;13600;50.816;4.416;2023-09-19T07:43:35;17.90;99.90
25753;DHT22;13600;50.816;4.416;2023-09-19T07:46:08;18.00;99.90
25753;DHT22;13600;50.816;4.416;2023-09-19T07:48:37;17.90;99.90
25753;DHT22;13600;50.816;4.416;2023-09-19T07:51:05;18.00;99.90
25753;DHT22;13600;50.816;4.416;2023-09-19T07:53:32;18.10;99.90
25753;DHT22;13600;50.816;4.416;2023-09-19T07:56:06;18.20;99.90
25753;DHT22;13600;50.816;4.416;2023-09-19T07:58:32;18.40;99.90
25753;DHT22;13600;50.816;4.416;2023-09-19T08:01:09;18.40;99.90
25753;DHT22;13600;50.816;4.416;2023-09-19T08:03:39;18.60;99.90
25753;DHT22;13600;50.816;4.416;2023-09-19T08:06:08;18.30;99.90
25753;DHT22;13600;50.816;4.416;2023-09-19T08:08:34;18.30;99.90
25753;DHT22;13600;50.816;4.416;2023-09-19T08:11:04;18.60;99.90
25753;DHT22;13600;50.816;4.416;2023-09-19T08:13:39;18.90;99.90
25753;DHT22;13600;50.816;4.416;2023-09-19T08:16:12;19.10;99.90
25753;DHT22;13600;50.816;4.416;2023-09-19T08:18:38;19.40;99.90
25753;DHT22;13600;50.816;4.416;2023-09-19T08:21:07;19.60;99.90
25753;DHT22;13600;50.816;4.416;2023-09-19T08:23:38;19.60;99.90
25753;DHT22;13600;50.816;4.416;2023-09-19T08:26:07;19.20;99.90
25753;DHT22;13600;50.816;4.416;2023-09-19T08:28:37;19.10;99.90
25753;DHT22;13600;50.816;4.416;2023-09-19T08:31:07;19.20;99.90
25753;DHT22;13600;50.816;4.416;2023-09-19T08:33:35;19.40;99.90
25753;DHT22;13600;50.816;4.416;2023-09-19T08:36:02;19.50;99.90
25753;DHT22;13600;50.816;4.416;2023-09-19T08:38:31;19.70;99.90
25753;DHT22;13600;50.816;4.416;2023-09-19T08:40:59;19.80;99.90
25753;DHT22;13600;50.816;4.416;2023-09-19T08:43:26;19.70;99.90
25753;DHT22;13600;50.816;4.416;2023-09-19T08:46:02;19.70;99.90
25753;DHT22;13600;50.816;4.416;2023-09-19T08:48:29;19.60;99.90
25753;DHT22;13600;50.816;4.416;2023-09-19T08:51:03;19.70;99.90
25753;DHT22;13600;50.816;4.416;2023-09-19T08:53:42;19.90;99.90
25753;DHT22;13600;50.816;4.416;2023-09-19T08:56:10;20.30;99.90
25753;DHT22;13600;50.816;4.416;2023-09-19T08:58:48;20.60;99.90
25753;DHT22;13600;50.816;4.416;2023-09-19T09:01:17;20.70;99.90
25753;DHT22;13600;50.816;4.416;2023-09-19T09:03:51;21.10;99.90
25753;DHT22;13600;50.816;4.416;2023-09-19T09:06:21;22.10;99.90
25753;DHT22;13600;50.816;4.416;2023-09-19T09:08:50;23.10;99.90
25753;DHT22;13600;50.816;4.416;2023-09-19T09:11:16;24.00;99.90
25753;DHT22;13600;50.816;4.416;2023-09-19T09:13:46;24.80;99.90
25753;DHT22;13600;50.816;4.416;2023-09-19T09:16:13;24.90;99.90
25753;DHT22;13600;50.816;4.416;2023-09-19T09:18:42;24.70;99.90
25753;DHT22;13600;50.816;4.416;2023-09-19T09:21:10;24.80;99.90
25753;DHT22;13600;50.816;4.416;2023-09-19T09:23:35;25.40;99.90
25753;DHT22;13600;50.816;4.416;2023-09-19T09:26:01;24.70;99.90
25753;DHT22;13600;50.816;4.416;2023-09-19T09:28:33;24.70;99.90
25753;DHT22;13600;50.816;4.416;2023-09-19T09:31:00;24.30;99.90
25753;DHT22;13600;50.816;4.416;2023-09-19T09:33:28;23.90;99.90
25753;DHT22;13600;50.816;4.416;2023-09-19T09:36:02;23.70;99.90
25753;DHT22;13600;50.816;4.416;2023-09-19T09:38:49;23.50;99.90
25753;DHT22;13600;50.816;4.416;2023-09-19T09:41:16;23.60;99.90
25753;DHT22;13600;50.816;4.416;2023-09-19T09:43:53;23.10;99.90
25753;DHT22;13600;50.816;4.416;2023-09-19T09:46:20;23.30;99.90
25753;DHT22;13600;50.816;4.416;2023-09-19T09:48:58;23.20;99.90
25753;DHT22;13600;50.816;4.416;2023-09-19T09:51:40;23.40;99.90
25753;DHT22;13600;50.816;4.416;2023-09-19T09:54:12;23.20;99.90
25753;DHT22;13600;50.816;4.416;2023-09-19T09:57:00;22.70;99.90
25753;DHT22;13600;50.816;4.416;2023-09-19T09:59:50;21.90;99.90
25753;DHT22;13600;50.816;4.416;2023-09-19T10:02:17;21.70;99.90
25753;DHT22;13600;50.816;4.416;2023-09-19T10:04:50;21.80;99.90
25753;DHT22;13600;50.816;4.416;2023-09-19T10:07:35;22.10;99.90
25753;DHT22;13600;50.816;4.416;2023-09-19T10:10:07;22.50;99.90
25753;DHT22;13600;50.816;4.416;2023-09-19T10:12:48;22.70;99.90
25753;DHT22;13600;50.816;4.416;2023-09-19T10:15:16;22.80;99.90
25753;DHT22;13600;50.816;4.416;2023-09-19T10:17:43;23.60;99.90
25753;DHT22;13600;50.816;4.416;2023-09-19T10:20:18;23.60;99.90
25753;DHT22;13600;50.816;4.416;2023-09-19T10:23:10;24.60;99.90
25753;DHT22;13600;50.816;4.416;2023-09-19T10:25:41;25.50;99.90
25753;DHT22;13600;50.816;4.416;2023-09-19T10:28:12;26.40;99.90
25753;DHT22;13600;50.816;4.416;2023-09-19T10:30:41;27.70;99.00
25753;DHT22;13600;50.816;4.416;2023-09-19T10:33:15;27.70;96.90
25753;DHT22;13600;50.816;4.416;2023-09-19T10:35:45;28.80;95.80
25753;DHT22;13600;50.816;4.416;2023-09-19T10:38:13;29.90;93.90
25753;DHT22;13600;50.816;4.416;2023-09-19T10:40:40;30.30;91.40
25753;DHT22;13600;50.816;4.416;2023-09-19T10:43:12;30.50;90.30
25753;DHT22;13600;50.816;4.416;2023-09-19T10:45:38;30.40;88.80
25753;DHT22;13600;50.816;4.416;2023-09-19T10:48:08;30.10;88.20
25753;DHT22;13600;50.816;4.416;2023-09-19T10:53:43;29.50;88.90
25753;DHT22;13600;50.816;4.416;2023-09-19T10:56:11;29.10;89.70
25753;DHT22;13600;50.816;4.416;2023-09-19T10:58:44;29.00;90.10
25753;DHT22;13600;50.816;4.416;2023-09-19T11:01:12;29.00;90.50
25753;DHT22;13600;50.816;4.416;2023-09-19T11:03:41;29.20;90.60
25753;DHT22;13600;50.816;4.416;2023-09-19T11:06:15;30.00;89.60
25753;DHT22;13600;50.816;4.416;2023-09-19T11:09:02;29.70;88.70
25753;DHT22;13600;50.816;4.416;2023-09-19T11:11:43;30.50;85.70
25753;DHT22;13600;50.816;4.416;2023-09-19T11:14:38;31.10;85.00
25753;DHT22;13600;50.816;4.416;2023-09-19T11:33:28;31.70;79.70
25753;DHT22;13600;50.816;4.416;2023-09-19T11:36:09;30.40;81.00
25753;DHT22;13600;50.816;4.416;2023-09-19T11:47:06;28.10;88.60
25753;DHT22;13600;50.816;4.416;2023-09-19T11:49:35;28.20;87.40
25753;DHT22;13600;50.816;4.416;2023-09-19T11:52:06;28.30;88.40
25753;DHT22;13600;50.816;4.416;2023-09-19T11:54:34;27.70;88.90
25753;DHT22;13600;50.816;4.416;2023-09-19T11:57:02;26.90;90.00
25753;DHT22;13600;50.816;4.416;2023-09-19T11:59:30;25.80;92.20
25753;DHT22;13600;50.816;4.416;2023-09-19T12:02:05;26.00;93.20
25753;DHT22;13600;50.816;4.416;2023-09-19T12:04:40;25.70;93.10
25753;DHT22;13600;50.816;4.416;2023-09-19T12:07:13;25.70;93.80
25753;DHT22;13600;50.816;4.416;2023-09-19T12:09:43;25.20;94.70
25753;DHT22;13600;50.816;4.416;2023-09-19T12:14:50;25.30;95.60
25753;DHT22;13600;50.816;4.416;2023-09-19T12:17:17;25.10;95.00
25753;DHT22;13600;50.816;4.416;2023-09-19T12:19:55;24.80;95.90
25753;DHT22;13600;50.816;4.416;2023-09-19T12:22:20;24.60;96.90
25753;DHT22;13600;50.816;4.416;2023-09-19T12:24:47;24.50;97.50
25753;DHT22;13600;50.816;4.416;2023-09-19T12:27:13;24.50;98.10
25753;DHT22;13600;50.816;4.416;2023-09-19T12:29:46;24.30;98.20
25753;DHT22;13600;50.816;4.416;2023-09-19T12:32:15;23.80;99.60
25753;DHT22;13600;50.816;4.416;2023-09-19T12:34:49;24.10;99.80
25753;DHT22;13600;50.816;4.416;2023-09-19T12:37:16;24.60;99.40
25753;DHT22;13600;50.816;4.416;2023-09-19T12:39:50;24.60;98.90
25753;DHT22;13600;50.816;4.416;2023-09-19T12:42:26;23.90;99.90
25753;DHT22;13600;50.816;4.416;2023-09-19T12:44:59;23.80;99.90
25753;DHT22;13600;50.816;4.416;2023-09-19T12:47:27;23.90;99.90
25753;DHT22;13600;50.816;4.416;2023-09-19T12:50:12;24.10;99.90
25753;DHT22;13600;50.816;4.416;2023-09-19T12:52:40;24.40;99.90
25753;DHT22;13600;50.816;4.416;2023-09-19T12:55:07;24.80;99.90
25753;DHT22;13600;50.816;4.416;2023-09-19T12:57:35;24.90;99.90
25753;DHT22;13600;50.816;4.416;2023-09-19T13:00:04;24.60;99.90
25753;DHT22;13600;50.816;4.416;2023-09-19T13:02:31;24.40;99.90
25753;DHT22;13600;50.816;4.416;2023-09-19T13:04:58;24.50;99.90
25753;DHT22;13600;50.816;4.416;2023-09-19T13:07:45;24.20;99.90
25753;DHT22;13600;50.816;4.416;2023-09-19T13:10:13;24.00;99.90
25753;DHT22;13600;50.816;4.416;2023-09-19T13:12:42;23.90;99.90
25753;DHT22;13600;50.816;4.416;2023-09-19T13:15:11;24.00;99.90
25753;DHT22;13600;50.816;4.416;2023-09-19T13:17:48;24.00;99.90
25753;DHT22;13600;50.816;4.416;2023-09-19T13:20:27;23.90;99.90
25753;DHT22;13600;50.816;4.416;2023-09-19T13:22:53;23.40;99.90
25753;DHT22;13600;50.816;4.416;2023-09-19T13:25:24;23.50;99.90
25753;DHT22;13600;50.816;4.416;2023-09-19T13:27:52;23.20;99.90
25753;DHT22;13600;50.816;4.416;2023-09-19T13:30:22;23.40;99.90
25753;DHT22;13600;50.816;4.416;2023-09-19T13:32:48;23.40;99.90
25753;DHT22;13600;50.816;4.416;2023-09-19T13:35:15;23.10;99.90
25753;DHT22;13600;50.816;4.416;2023-09-19T13:37:42;23.00;99.90
25753;DHT22;13600;50.816;4.416;2023-09-19T13:40:09;22.90;99.90
25753;DHT22;13600;50.816;4.416;2023-09-19T13:42:35;22.80;99.90
25753;DHT22;13600;50.816;4.416;2023-09-19T13:45:02;22.80;99.90
25753;DHT22;13600;50.816;4.416;2023-09-19T13:47:32;22.70;99.90
25753;DHT22;13600;50.816;4.416;2023-09-19T13:49:59;22.80;99.90
25753;DHT22;13600;50.816;4.416;2023-09-19T13:52:26;22.90;99.90
25753;DHT22;13600;50.816;4.416;2023-09-19T13:54:54;23.20;99.90
25753;DHT22;13600;50.816;4.416;2023-09-19T13:57:22;23.20;99.90
25753;DHT22;13600;50.816;4.416;2023-09-19T13:59:51;23.30;99.90
25753;DHT22;13600;50.816;4.416;2023-09-19T14:02:18;23.30;99.90
25753;DHT22;13600;50.816;4.416;2023-09-19T14:04:44;23.00;99.90
25753;DHT22;13600;50.816;4.416;2023-09-19T14:07:11;22.70;99.90
25753;DHT22;13600;50.816;4.416;2023-09-19T14:09:37;22.50;99.90
25753;DHT22;13600;50.816;4.416;2023-09-19T14:12:03;22.40;99.90
25753;DHT22;13600;50.816;4.416;2023-09-19T14:14:29;22.60;99.90
25753;DHT22;13600;50.816;4.416;2023-09-19T14:16:55;22.70;99.90
25753;DHT22;13600;50.816;4.416;2023-09-19T14:19:21;22.80;99.90
25753;DHT22;13600;50.816;4.416;2023-09-19T14:21:47;22.70;99.90
25753;DHT22;13600;50.816;4.416;2023-09-19T14:24:18;22.60;99.90
25753;DHT22;13600;50.816;4.416;2023-09-19T14:26:45;22.40;99.90
25753;DHT22;13600;50.816;4.416;2023-09-19T14:29:11;22.70;99.90
25753;DHT22;13600;50.816;4.416;2023-09-19T14:31:37;23.00;99.90
25753;DHT22;13600;50.816;4.416;2023-09-19T14:34:06;22.90;99.90
25753;DHT22;13600;50.816;4.416;2023-09-19T14:36:32;22.90;99.90
25753;DHT22;13600;50.816;4.416;2023-09-19T14:38:59;23.00;99.90
25753;DHT22;13600;50.816;4.416;2023-09-19T14:41:25;23.10;99.90
25753;DHT22;13600;50.816;4.416;2023-09-19T14:43:52;23.00;99.90
25753;DHT22;13600;50.816;4.416;2023-09-19T14:46:18;23.40;99.90
25753;DHT22;13600;50.816;4.416;2023-09-19T14:48:45;24.00;99.90
25753;DHT22;13600;50.816;4.416;2023-09-19T14:51:14;24.20;99.90
25753;DHT22;13600;50.816;4.416;2023-09-19T14:53:40;24.90;99.90
25753;DHT22;13600;50.816;4.416;2023-09-19T14:56:10;25.30;99.90
25753;DHT22;13600;50.816;4.416;2023-09-19T14:58:37;25.10;99.90
25753;DHT22;13600;50.816;4.416;2023-09-19T15:01:13;25.20;99.90
25753;DHT22;13600;50.816;4.416;2023-09-19T15:03:41;25.30;99.90
25753;DHT22;13600;50.816;4.416;2023-09-19T15:06:10;24.60;99.90
25753;DHT22;13600;50.816;4.416;2023-09-19T15:08:40;24.30;99.90
25753;DHT22;13600;50.816;4.416;2023-09-19T15:11:09;24.10;99.90
25753;DHT22;13600;50.816;4.416;2023-09-19T15:13:36;23.70;99.90
25753;DHT22;13600;50.816;4.416;2023-09-19T15:16:04;23.40;99.90
25753;DHT22;13600;50.816;4.416;2023-09-19T15:18:30;23.20;99.90
25753;DHT22;13600;50.816;4.416;2023-09-19T15:21:01;22.90;99.90
25753;DHT22;13600;50.816;4.416;2023-09-19T15:23:29;22.80;99.90
25753;DHT22;13600;50.816;4.416;2023-09-19T15:25:56;22.80;99.90
25753;DHT22;13600;50.816;4.416;2023-09-19T15:28:22;22.70;99.90
25753;DHT22;13600;50.816;4.416;2023-09-19T15:30:49;22.60;99.90
25753;DHT22;13600;50.816;4.416;2023-09-19T15:33:15;22.60;99.90
25753;DHT22;13600;50.816;4.416;2023-09-19T15:35:41;22.60;99.90
25753;DHT22;13600;50.816;4.416;2023-09-19T15:38:07;22.40;99.90
25753;DHT22;13600;50.816;4.416;2023-09-19T15:40:33;21.90;99.90
25753;DHT22;13600;50.816;4.416;2023-09-19T15:43:01;21.70;99.90
25753;DHT22;13600;50.816;4.416;2023-09-19T15:45:28;21.50;99.90
25753;DHT22;13600;50.816;4.416;2023-09-19T15:47:54;21.30;99.90
25753;DHT22;13600;50.816;4.416;2023-09-19T15:50:21;21.30;99.90
25753;DHT22;13600;50.816;4.416;2023-09-19T15:52:53;21.30;99.90
25753;DHT22;13600;50.816;4.416;2023-09-19T15:55:19;21.50;99.90
25753;DHT22;13600;50.816;4.416;2023-09-19T15:57:45;21.70;99.90
25753;DHT22;13600;50.816;4.416;2023-09-19T16:00:11;21.70;99.90
25753;DHT22;13600;50.816;4.416;2023-09-19T16:02:39;21.70;99.90
25753;DHT22;13600;50.816;4.416;2023-09-19T16:05:05;21.80;99.90
25753;DHT22;13600;50.816;4.416;2023-09-19T16:07:32;21.70;99.90
25753;DHT22;13600;50.816;4.416;2023-09-19T16:09:59;21.60;99.90
25753;DHT22;13600;50.816;4.416;2023-09-19T16:12:25;21.70;99.90
25753;DHT22;13600;50.816;4.416;2023-09-19T16:14:51;21.50;99.90
25753;DHT22;13600;50.816;4.416;2023-09-19T16:17:17;21.50;99.90
25753;DHT22;13600;50.816;4.416;2023-09-19T16:19:43;21.50;99.90
25753;DHT22;13600;50.816;4.416;2023-09-19T16:22:10;21.20;99.90
25753;DHT22;13600;50.816;4.416;2023-09-19T16:24:35;21.20;99.90
25753;DHT22;13600;50.816;4.416;2023-09-19T16:27:01;21.10;99.90
25753;DHT22;13600;50.816;4.416;2023-09-19T16:29:27;21.10;99.90
25753;DHT22;13600;50.816;4.416;2023-09-19T16:31:53;21.20;99.90